Главная страница
METAR-TAF:

METAR-TAF

Аэропорты :

Роскилле, Дания

широта: 55-35N, долгота: 012-08E, высота над уровнем моря: 44 м

Текущие метеонаблюдения

Эта сводка был подготовлена 28 минут назад, в 05:50 UTC
Ветер 16 Узел от западно-северо-западный
Температура 5°C
Влажность 75%
Давление 1000 hPa
Видимость 10 км и более

METAR: EKRK 100550Z AUTO 30016KT 9999NDV FEW025/// BKN039/// BKN044/// 05/01 Q1000

Время: 07:18 (06:18 UTC)

Прогноз

Эта сводка был подготовлена 1 час и 7 минут назад, в 05:11 UTC
Прогноз действительный с 10-го 06 UTC до 10-го 15 UTC
Ветер 12 Узел от западно-северо-западный
Видимость 10 км и более
Отдельные облака на высоте 2500 фута
временами
С 10-го 06 UTC до 10-го 15 UTC
Ветер 15 Узел от западно-северо-западный с порывами до 25 Узел

TAF: EKRK 100511Z 1006/1015 30012KT 9999 SCT025 TEMPO 1006/1015 30015G25KT

Метеонаблюдения и прогнозы для более 4000 аэропортов (сводки METAR и TAF).

Имеющиеся станции представлены на карте желтыми и красными точками.

Чтобы увидеть название станции, наведите на нее мышь.

Затем щелкните, чтобы увидеть метеонаблюдения и метеопрогнозы.

Управление картой: чтобы увеличить масштаб, щелкните зеленые кнопки с черным крестиком; чтобы уменьшить масштаб, щелкните зеленую кнопку с тире; для просмотра соседних карт щелкайте зеленые стрелки.


METAR-TAF: